createdAt,value
2019-01-04T00:00:34.962Z,38.33
2019-01-04T00:03:04.681Z,36.20
2019-01-04T00:05:33.662Z,41.08
2019-01-04T00:08:02.645Z,40.30
2019-01-04T00:10:31.650Z,41.90
2019-01-04T00:13:00.618Z,39.73
2019-01-04T00:15:29.789Z,32.75
2019-01-04T00:17:58.694Z,47.53
2019-01-04T00:20:27.770Z,34.13
2019-01-04T00:22:56.806Z,32.95
2019-01-04T00:25:25.791Z,33.20
2019-01-04T00:27:55.008Z,33.38
2019-01-04T00:30:24.010Z,31.87
2019-01-04T00:32:54.941Z,36.45
2019-01-04T00:35:24.213Z,33.58
2019-01-04T00:37:53.204Z,32.50
2019-01-04T00:40:22.433Z,33.60
2019-01-04T00:42:51.489Z,34.53
2019-01-04T00:45:20.510Z,33.45
2019-01-04T00:47:49.501Z,32.23
2019-01-04T00:50:18.729Z,29.45
2019-01-04T00:52:47.747Z,32.58
2019-01-04T00:55:59.866Z,29.32
2019-01-04T00:59:21.726Z,35.73
2019-01-04T01:02:33.715Z,39.45
2019-01-04T01:05:39.947Z,36.98
2019-01-04T01:08:42.278Z,38.55
2019-01-04T01:11:48.030Z,34.08
2019-01-04T01:15:00.211Z,35.25
2019-01-04T01:18:12.074Z,36.42
2019-01-04T01:21:24.327Z,32.93
2019-01-04T01:24:26.278Z,34.65
2019-01-04T01:27:41.268Z,36.10
2019-01-04T01:30:51.051Z,34.00
2019-01-04T01:34:19.623Z,34.98
2019-01-04T01:37:24.970Z,39.70
2019-01-04T01:40:41.051Z,34.33
2019-01-04T01:43:46.260Z,33.65
2019-01-04T01:46:44.337Z,39.60
2019-01-04T01:49:54.188Z,34.25
2019-01-04T01:52:28.316Z,41.15
2019-01-04T01:54:57.213Z,36.13
2019-01-04T01:57:26.138Z,37.15
2019-01-04T01:59:55.133Z,39.85
2019-01-04T02:02:24.153Z,38.65
2019-01-04T02:04:53.061Z,34.20
2019-01-04T02:07:21.993Z,32.80
2019-01-04T02:09:50.976Z,35.20
2019-01-04T02:12:20.127Z,33.45
2019-01-04T02:14:49.130Z,40.12
2019-01-04T02:17:18.313Z,33.95
2019-01-04T02:19:47.233Z,42.15
2019-01-04T02:22:16.121Z,38.50
2019-01-04T02:24:45.113Z,36.35
2019-01-04T02:27:14.038Z,34.05
2019-01-04T02:29:42.953Z,35.13
2019-01-04T02:32:12.000Z,33.85
2019-01-04T02:34:41.147Z,33.15
2019-01-04T02:37:10.010Z,31.33
2019-01-04T02:39:38.910Z,32.48
2019-01-04T02:42:07.848Z,33.58
2019-01-04T02:44:36.785Z,30.10
2019-01-04T02:47:06.016Z,31.15
2019-01-04T02:49:34.923Z,31.60
2019-01-04T02:52:03.954Z,38.53
2019-01-04T02:54:32.772Z,33.85
2019-01-04T02:57:01.791Z,30.90
2019-01-04T02:59:30.780Z,29.67
2019-01-04T03:01:59.642Z,38.98
2019-01-04T03:04:28.775Z,31.62
2019-01-04T03:06:57.691Z,31.65
2019-01-04T03:09:26.651Z,34.83
2019-01-04T03:11:55.602Z,29.63
2019-01-04T03:14:24.870Z,31.25
2019-01-04T03:16:53.770Z,26.73
2019-01-04T03:19:22.638Z,30.02
2019-01-04T03:21:51.918Z,31.73
2019-01-04T03:24:20.945Z,29.80
2019-01-04T03:26:49.833Z,28.92
2019-01-04T03:29:18.714Z,26.15
2019-01-04T03:31:47.679Z,25.90
2019-01-04T03:34:16.614Z,27.62
2019-01-04T03:36:45.454Z,24.65
2019-01-04T03:39:14.612Z,29.85
2019-01-04T03:41:43.538Z,27.45
2019-01-04T03:44:12.405Z,26.75
2019-01-04T03:46:41.319Z,23.50
2019-01-04T03:49:10.171Z,20.97
2019-01-04T03:51:41.138Z,30.12
2019-01-04T03:54:10.126Z,24.72
2019-01-04T03:56:39.060Z,27.52
2019-01-04T03:59:07.877Z,25.48
2019-01-04T04:01:36.796Z,28.45
2019-01-04T04:04:05.707Z,29.07
2019-01-04T04:06:35.051Z,27.42
2019-01-04T04:09:05.702Z,31.12
2019-01-04T04:11:34.896Z,25.20
2019-01-04T04:14:03.819Z,30.75
2019-01-04T04:16:32.681Z,32.73
2019-01-04T04:19:01.674Z,27.07
2019-01-04T04:21:30.614Z,29.27
2019-01-04T04:23:59.449Z,29.27
2019-01-04T04:26:28.449Z,30.32
2019-01-04T04:28:57.969Z,35.43
2019-01-04T04:31:26.908Z,27.45
2019-01-04T04:33:55.749Z,32.65
2019-01-04T04:36:24.668Z,31.12
2019-01-04T04:38:53.520Z,30.23
2019-01-04T04:41:23.001Z,33.85
2019-01-04T04:43:51.856Z,35.52
2019-01-04T04:46:21.029Z,30.10
2019-01-04T04:48:49.853Z,36.33
2019-01-04T04:51:18.694Z,33.33
2019-01-04T04:53:47.542Z,32.95
2019-01-04T04:56:16.389Z,33.40
2019-01-04T04:58:45.630Z,39.15
2019-01-04T05:01:14.497Z,34.13
2019-01-04T05:03:43.432Z,44.70
2019-01-04T05:06:12.352Z,38.60
2019-01-04T05:08:41.418Z,32.83
2019-01-04T05:11:10.659Z,34.75
2019-01-04T05:13:39.494Z,34.63
2019-01-04T05:16:08.579Z,36.65
2019-01-04T05:18:37.520Z,29.52
2019-01-04T05:21:06.954Z,35.10
2019-01-04T05:23:35.876Z,33.67
2019-01-04T05:26:04.730Z,39.35
2019-01-04T05:28:33.606Z,31.45
2019-01-04T05:31:02.692Z,33.63
2019-01-04T05:33:31.530Z,31.82
2019-01-04T05:36:00.377Z,27.77
2019-01-04T05:38:29.286Z,28.62
2019-01-04T05:40:58.097Z,36.77
2019-01-04T05:43:27.370Z,34.45
2019-01-04T05:45:56.527Z,33.23
2019-01-04T05:48:25.463Z,28.60
2019-01-04T05:50:54.293Z,32.25
2019-01-04T05:53:23.212Z,33.08
2019-01-04T05:55:52.051Z,35.92
2019-01-04T05:58:20.903Z,38.85
2019-01-04T06:00:49.898Z,31.80
2019-01-04T06:03:18.818Z,40.55
2019-01-04T06:05:47.662Z,35.80
2019-01-04T06:08:16.689Z,34.05
2019-01-04T06:10:45.607Z,33.40
2019-01-04T06:13:14.698Z,42.05
2019-01-04T06:15:43.606Z,35.15
2019-01-04T06:18:12.534Z,36.30
2019-01-04T06:20:41.475Z,34.15
2019-01-04T06:23:10.395Z,30.05
2019-01-04T06:25:39.274Z,35.10
2019-01-04T06:28:08.177Z,41.48
2019-01-04T06:30:37.227Z,38.28
2019-01-04T06:33:06.156Z,35.65
2019-01-04T06:35:35.087Z,40.70
2019-01-04T06:38:04.246Z,40.95
2019-01-04T06:40:33.269Z,36.75
2019-01-04T06:43:03.236Z,38.15
2019-01-04T06:45:32.162Z,39.33
2019-01-04T06:48:01.011Z,37.17
2019-01-04T06:50:29.862Z,35.48
2019-01-04T06:52:58.809Z,32.08
2019-01-04T06:55:48.163Z,38.08
2019-01-04T06:58:17.758Z,36.08
2019-01-04T07:00:46.718Z,36.98
2019-01-04T07:03:15.711Z,42.20
2019-01-04T07:05:44.732Z,41.13
2019-01-04T07:08:13.743Z,39.13
2019-01-04T07:10:42.662Z,33.18
2019-01-04T07:13:12.906Z,33.40
2019-01-04T07:15:41.872Z,31.00
2019-01-04T07:18:10.873Z,32.35
2019-01-04T07:20:39.872Z,33.53
2019-01-04T07:23:08.892Z,36.60
2019-01-04T07:25:37.942Z,44.42
2019-01-04T07:28:06.855Z,33.78
2019-01-04T07:30:35.985Z,31.62
2019-01-04T07:33:07.992Z,34.20
2019-01-04T07:35:37.080Z,36.77
2019-01-04T07:38:06.002Z,30.12
2019-01-04T07:40:35.037Z,30.55
2019-01-04T07:43:03.965Z,34.95
2019-01-04T07:45:32.969Z,32.63
2019-01-04T07:48:01.890Z,34.88
2019-01-04T07:50:30.817Z,32.15
2019-01-04T07:53:00.797Z,32.70
2019-01-04T07:55:29.736Z,37.80
2019-01-04T07:57:58.579Z,36.03
2019-01-04T08:00:27.582Z,37.63
2019-01-04T08:02:59.712Z,35.30
2019-01-04T08:05:29.433Z,32.90
2019-01-04T08:07:58.264Z,38.17
2019-01-04T08:10:27.111Z,32.78
2019-01-04T08:12:58.066Z,32.00
2019-01-04T08:15:27.335Z,32.65
2019-01-04T08:17:56.204Z,32.25
2019-01-04T08:20:25.130Z,33.67
2019-01-04T08:22:54.066Z,32.73
2019-01-04T08:25:23.001Z,36.03
2019-01-04T08:27:52.014Z,41.37
2019-01-04T08:30:21.587Z,34.33
2019-01-04T08:32:50.433Z,32.93
2019-01-04T08:35:19.260Z,28.10
2019-01-04T08:37:48.186Z,31.57
2019-01-04T08:40:17.085Z,37.55
2019-01-04T08:42:46.012Z,29.42
2019-01-04T08:45:16.108Z,29.05
2019-01-04T08:47:44.937Z,36.13
2019-01-04T08:50:15.230Z,32.45
2019-01-04T08:52:44.365Z,32.60
2019-01-04T08:55:22.990Z,39.98
2019-01-04T08:57:51.807Z,33.85
2019-01-04T09:00:20.698Z,32.33
2019-01-04T09:02:49.538Z,32.13
2019-01-04T09:05:18.453Z,39.23
2019-01-04T09:07:47.272Z,34.75
2019-01-04T09:10:16.277Z,28.52
2019-01-04T09:12:45.253Z,30.92
2019-01-04T09:15:14.249Z,31.80
2019-01-04T09:17:43.180Z,31.85
2019-01-04T09:20:12.191Z,33.53
2019-01-04T09:22:42.293Z,35.13
2019-01-04T09:25:11.413Z,30.92
2019-01-04T09:27:40.336Z,31.90
2019-01-04T09:30:12.183Z,27.60
2019-01-04T09:32:41.411Z,29.35
2019-01-04T09:35:10.318Z,37.10
2019-01-04T09:37:39.449Z,29.10
2019-01-04T09:40:10.598Z,32.25
2019-01-04T09:42:40.228Z,32.05
2019-01-04T09:45:10.234Z,31.90
2019-01-04T09:47:39.223Z,33.40
2019-01-04T09:50:09.471Z,33.92
2019-01-04T09:52:39.304Z,26.70
2019-01-04T09:55:08.675Z,35.65
2019-01-04T09:57:37.532Z,30.30
2019-01-04T10:00:09.869Z,31.77
2019-01-04T10:02:38.745Z,27.20
2019-01-04T10:05:08.150Z,26.12
2019-01-04T10:07:37.061Z,25.70
2019-01-04T10:10:12.517Z,22.17
2019-01-04T10:12:41.531Z,25.75
2019-01-04T10:15:12.897Z,22.48
2019-01-04T10:17:41.741Z,32.50
2019-01-04T10:20:10.729Z,22.98
2019-01-04T10:22:39.721Z,22.87
2019-01-04T10:25:08.858Z,26.70
2019-01-04T10:27:37.821Z,24.40
2019-01-04T10:30:10.481Z,23.62
2019-01-04T10:32:39.461Z,27.58
2019-01-04T10:35:10.690Z,28.87
2019-01-04T10:37:39.322Z,23.73
2019-01-04T10:40:11.223Z,26.15
2019-01-04T10:42:39.091Z,27.93
2019-01-04T10:45:08.044Z,25.20
2019-01-04T10:47:36.963Z,28.42
2019-01-04T10:50:06.209Z,20.35
2019-01-04T10:52:35.058Z,21.52
2019-01-04T10:55:04.526Z,23.67
2019-01-04T10:57:33.754Z,25.85
2019-01-04T11:00:02.604Z,30.05
2019-01-04T11:02:31.521Z,22.75
2019-01-04T11:05:00.798Z,26.68
2019-01-04T11:07:29.826Z,28.70
2019-01-04T11:09:58.815Z,21.57
2019-01-04T11:12:27.809Z,24.47
2019-01-04T11:14:56.970Z,25.05
2019-01-04T11:17:25.976Z,21.68
2019-01-04T11:19:54.949Z,25.27
2019-01-04T11:25:57.905Z,24.20
2019-01-04T11:29:09.856Z,18.57
2019-01-04T11:31:50.408Z,20.43
2019-01-04T11:34:53.506Z,24.45
2019-01-04T11:38:09.305Z,25.15
2019-01-04T11:40:54.604Z,26.02
2019-01-04T11:44:03.221Z,25.95
2019-01-04T11:46:50.068Z,22.73
2019-01-04T11:49:43.386Z,24.40
2019-01-04T11:52:31.190Z,26.07
2019-01-04T11:54:59.213Z,20.40
2019-01-04T11:57:28.153Z,24.35
2019-01-04T11:59:57.393Z,36.95
2019-01-04T12:02:26.644Z,26.37
2019-01-04T12:04:57.136Z,24.57
2019-01-04T12:07:26.037Z,18.17
2019-01-04T12:09:55.184Z,22.20
2019-01-04T12:12:25.452Z,22.32
2019-01-04T12:14:54.304Z,23.65
2019-01-04T12:17:23.159Z,22.13
2019-01-04T12:19:52.097Z,26.00
2019-01-04T12:22:20.941Z,20.68
2019-01-04T12:24:49.787Z,22.40
2019-01-04T12:27:18.785Z,19.37
2019-01-04T12:29:47.935Z,25.40
2019-01-04T12:32:16.772Z,20.15
2019-01-04T12:34:45.627Z,21.57
2019-01-04T12:37:14.832Z,21.57
2019-01-04T12:39:43.654Z,24.85
2019-01-04T12:42:13.609Z,20.85
2019-01-04T12:44:42.426Z,26.27
2019-01-04T12:47:11.729Z,20.80
2019-01-04T12:49:41.309Z,24.55
2019-01-04T12:52:10.425Z,22.82
2019-01-04T12:54:39.356Z,19.40
2019-01-04T12:57:08.190Z,26.75
2019-01-04T12:59:37.029Z,23.75
2019-01-04T13:02:05.943Z,25.27
2019-01-04T13:04:34.789Z,28.80
2019-01-04T13:07:03.805Z,22.02
2019-01-04T13:09:32.702Z,23.60
2019-01-04T13:12:01.549Z,26.93
2019-01-04T13:14:31.159Z,26.45
2019-01-04T13:16:59.994Z,22.93
2019-01-04T13:19:31.033Z,25.60
2019-01-04T13:22:00.205Z,26.37
2019-01-04T13:24:29.135Z,24.23
2019-01-04T13:26:58.036Z,25.57
2019-01-04T13:29:27.095Z,26.42
2019-01-04T13:31:55.974Z,26.55
2019-01-04T13:34:24.827Z,23.25
2019-01-04T13:36:53.690Z,28.23
2019-01-04T13:39:22.678Z,21.97
2019-01-04T13:41:51.578Z,24.47
2019-01-04T13:44:22.837Z,23.55
2019-01-04T13:46:53.241Z,24.43
2019-01-04T13:49:22.073Z,25.90
2019-01-04T13:51:51.074Z,27.15
2019-01-04T13:54:38.038Z,23.05
2019-01-04T13:57:06.949Z,25.70
2019-01-04T13:59:36.119Z,22.00
2019-01-04T14:02:05.041Z,23.40
2019-01-04T14:04:33.874Z,23.57
2019-01-04T14:07:02.894Z,24.65
2019-01-04T14:09:31.789Z,21.30
2019-01-04T14:12:00.610Z,25.92
2019-01-04T14:14:29.525Z,21.60
2019-01-04T14:16:58.469Z,25.05
2019-01-04T14:19:27.276Z,25.60
2019-01-04T14:21:56.105Z,20.85
2019-01-04T14:24:25.020Z,24.02
2019-01-04T14:26:54.148Z,21.75
2019-01-04T14:29:23.336Z,23.02
2019-01-04T14:31:52.226Z,22.13
2019-01-04T14:34:21.304Z,21.77
2019-01-04T14:36:50.525Z,24.27
2019-01-04T14:39:19.493Z,22.58
2019-01-04T14:41:48.552Z,27.87
2019-01-04T14:44:17.993Z,21.97
2019-01-04T14:46:46.809Z,25.30
2019-01-04T14:49:16.088Z,21.93
2019-01-04T14:51:45.074Z,23.38
2019-01-04T14:54:14.291Z,23.70
2019-01-04T14:56:43.361Z,25.37
2019-01-04T14:59:12.236Z,30.17
2019-01-04T15:01:41.193Z,24.75
2019-01-04T15:04:10.081Z,24.27
2019-01-04T15:06:39.082Z,22.65
2019-01-04T15:09:08.237Z,24.65
2019-01-04T15:11:37.512Z,19.52
2019-01-04T15:14:06.645Z,21.33
2019-01-04T15:16:35.566Z,29.90
2019-01-04T15:19:04.631Z,22.25
2019-01-04T15:21:33.493Z,31.33
2019-01-04T15:24:02.644Z,22.55
2019-01-04T15:26:31.620Z,22.55
2019-01-04T15:29:00.567Z,25.82
2019-01-04T15:31:29.479Z,23.92
2019-01-04T15:33:58.361Z,24.00
2019-01-04T15:36:27.361Z,19.80
2019-01-04T15:38:56.324Z,28.30
2019-01-04T15:41:25.217Z,22.20
2019-01-04T15:43:54.366Z,23.62
2019-01-04T15:46:23.353Z,22.13
2019-01-04T15:48:52.299Z,23.18
2019-01-04T15:51:21.375Z,22.62
2019-01-04T15:53:50.289Z,21.85
2019-01-04T15:56:19.194Z,23.32
2019-01-04T15:58:48.478Z,23.55
2019-01-04T16:01:17.434Z,26.93
2019-01-04T16:03:46.296Z,23.70
2019-01-04T16:06:15.178Z,25.90
2019-01-04T16:08:44.034Z,28.70
2019-01-04T16:11:13.382Z,29.77
2019-01-04T16:13:42.336Z,29.98
2019-01-04T16:16:11.270Z,25.35
2019-01-04T16:18:40.341Z,24.72
2019-01-04T16:21:09.246Z,24.63
2019-01-04T16:23:38.236Z,29.07
2019-01-04T16:26:07.091Z,27.17
2019-01-04T16:28:35.969Z,28.07
2019-01-04T16:31:04.978Z,30.23
2019-01-04T16:33:33.925Z,25.43
2019-01-04T16:36:02.779Z,31.97
2019-01-04T16:38:31.718Z,25.95
2019-01-04T16:41:19.878Z,29.18
2019-01-04T16:43:48.922Z,31.50
2019-01-04T16:46:17.851Z,29.15
2019-01-04T16:48:46.835Z,28.50
2019-01-04T16:51:15.970Z,32.40
2019-01-04T16:53:44.890Z,33.45
2019-01-04T16:56:13.829Z,37.40
2019-01-04T16:58:43.985Z,31.17
2019-01-04T17:01:13.611Z,28.65
2019-01-04T17:03:43.762Z,29.48
2019-01-04T17:06:12.763Z,27.15
2019-01-04T17:08:43.913Z,29.23
2019-01-04T17:11:13.863Z,34.38
2019-01-04T17:13:42.786Z,27.80
2019-01-04T17:16:11.759Z,25.65
2019-01-04T17:18:40.621Z,28.38
2019-01-04T17:21:09.782Z,29.18
2019-01-04T17:23:39.997Z,28.12
2019-01-04T17:26:10.022Z,29.12
2019-01-04T17:28:38.864Z,31.10
2019-01-04T17:31:07.781Z,34.38
2019-01-04T17:33:36.709Z,29.92
2019-01-04T17:36:05.638Z,27.82
2019-01-04T17:38:36.625Z,26.40
2019-01-04T17:41:05.512Z,27.37
2019-01-04T17:43:34.517Z,28.83
2019-01-04T17:46:03.504Z,27.20
2019-01-04T17:48:32.977Z,22.93
2019-01-04T17:51:01.845Z,20.97
2019-01-04T17:53:31.731Z,25.95
2019-01-04T17:56:01.665Z,19.17
2019-01-04T17:58:30.576Z,23.47
2019-01-04T18:00:59.505Z,21.45
2019-01-04T18:03:28.450Z,23.27
2019-01-04T18:05:57.365Z,23.60
2019-01-04T18:08:26.293Z,22.13
2019-01-04T18:10:55.223Z,21.85
2019-01-04T18:13:24.232Z,21.80
2019-01-04T18:15:53.206Z,28.40
2019-01-04T18:18:22.168Z,22.58
2019-01-04T18:20:51.166Z,23.30
2019-01-04T18:23:20.057Z,34.23
2019-01-04T18:25:49.234Z,21.00
2019-01-04T18:28:18.082Z,21.15
2019-01-04T18:30:47.026Z,22.65
2019-01-04T18:33:18.274Z,23.75
2019-01-04T18:35:47.297Z,26.25
2019-01-04T18:38:16.191Z,22.37
2019-01-04T18:40:45.147Z,27.27
2019-01-04T18:43:14.123Z,23.92
2019-01-04T18:45:42.954Z,27.05
2019-01-04T18:48:12.154Z,28.02
2019-01-04T18:50:42.118Z,24.37
2019-01-04T18:53:11.386Z,24.50
2019-01-04T18:55:40.406Z,23.32
2019-01-04T18:58:09.274Z,22.07
2019-01-04T19:00:38.269Z,23.73
2019-01-04T19:03:07.229Z,26.48
2019-01-04T19:05:36.178Z,27.50
2019-01-04T19:08:05.141Z,21.93
2019-01-04T19:10:34.022Z,25.27
2019-01-04T19:13:02.958Z,24.87
2019-01-04T19:15:32.159Z,28.85
2019-01-04T19:18:01.036Z,30.10
2019-01-04T19:20:30.379Z,29.80
2019-01-04T19:22:59.339Z,28.65
2019-01-04T19:25:28.342Z,27.30
2019-01-04T19:27:57.366Z,30.23
2019-01-04T19:30:26.632Z,28.80
2019-01-04T19:32:55.586Z,27.20
2019-01-04T19:35:24.517Z,33.88
2019-01-04T19:37:53.629Z,35.92
2019-01-04T19:40:22.636Z,27.60
2019-01-04T19:42:51.596Z,40.38
2019-01-04T19:45:20.566Z,35.60
2019-01-04T19:47:49.419Z,35.50
2019-01-04T19:50:22.651Z,34.80
2019-01-04T19:52:52.532Z,33.90
2019-01-04T19:55:21.602Z,36.15
2019-01-04T19:57:50.575Z,32.95
2019-01-04T20:00:19.662Z,37.28
2019-01-04T20:02:48.705Z,36.93
2019-01-04T20:05:47.528Z,33.33
2019-01-04T20:12:59.267Z,29.72
2019-01-04T20:16:14.287Z,36.05
2019-01-04T20:19:01.438Z,33.28
2019-01-04T20:21:48.289Z,35.17
2019-01-04T20:28:04.315Z,33.05
2019-01-04T20:30:53.925Z,29.92
2019-01-04T20:33:40.945Z,31.90
2019-01-04T20:36:27.946Z,31.52
2019-01-04T20:39:12.920Z,26.90
2019-01-04T20:42:00.081Z,27.65
2019-01-04T20:44:46.971Z,29.23
2019-01-04T20:47:44.547Z,40.65
2019-01-04T20:50:38.687Z,30.88
2019-01-04T20:53:20.123Z,37.05
2019-01-04T20:55:59.107Z,30.05
2019-01-04T20:58:45.974Z,34.67
2019-01-04T21:01:32.524Z,30.05
2019-01-04T21:04:23.589Z,28.80
2019-01-04T21:07:11.111Z,29.90
2019-01-04T21:09:52.207Z,31.37
2019-01-04T21:12:39.207Z,26.48
2019-01-04T21:15:27.847Z,25.72
2019-01-04T21:18:22.567Z,34.13
2019-01-04T21:21:25.641Z,32.78
2019-01-04T21:24:32.003Z,24.45
2019-01-04T21:27:28.955Z,28.80
2019-01-04T21:30:30.584Z,37.40
2019-01-04T21:33:17.479Z,28.40
2019-01-04T21:36:04.260Z,38.48
2019-01-04T21:38:51.207Z,26.93
2019-01-04T21:41:39.596Z,29.90
2019-01-04T21:44:30.618Z,27.22
2019-01-04T21:47:18.635Z,30.27
2019-01-04T21:50:06.631Z,34.00
2019-01-04T21:52:54.719Z,32.38
2019-01-04T21:55:48.880Z,29.77
2019-01-04T21:58:35.819Z,27.65
2019-01-04T22:01:38.709Z,30.77
2019-01-04T22:04:31.827Z,30.17
2019-01-04T22:07:24.853Z,28.00
2019-01-04T22:10:12.914Z,25.82
2019-01-04T22:13:06.963Z,31.30
2019-01-04T22:15:53.905Z,33.38
2019-01-04T22:18:47.743Z,34.88
2019-01-04T22:21:34.401Z,30.02
2019-01-04T22:24:23.010Z,28.77
2019-01-04T22:27:10.994Z,30.90
2019-01-04T22:30:11.488Z,35.92
2019-01-04T22:33:05.491Z,32.13
2019-01-04T22:35:52.134Z,30.35
2019-01-04T22:38:43.317Z,28.38
2019-01-04T22:41:30.006Z,28.70
2019-01-04T22:44:16.853Z,24.95
2019-01-04T22:47:14.368Z,28.77
2019-01-04T22:50:08.139Z,26.07
2019-01-04T22:52:56.959Z,30.85
2019-01-04T22:55:43.843Z,33.80
2019-01-04T22:58:34.925Z,25.50
2019-01-04T23:01:21.614Z,28.83
2019-01-04T23:04:06.087Z,26.15
2019-01-04T23:07:06.134Z,26.55
2019-01-04T23:09:52.886Z,28.35
2019-01-04T23:12:53.374Z,27.13
2019-01-04T23:15:48.065Z,30.85
2019-01-04T23:18:54.276Z,27.75
2019-01-04T23:22:09.402Z,24.27
2019-01-04T23:24:56.487Z,29.05
2019-01-04T23:27:56.835Z,30.15
2019-01-04T23:30:39.850Z,30.02
2019-01-04T23:33:45.323Z,31.20
2019-01-04T23:36:42.267Z,29.07
2019-01-04T23:39:39.266Z,29.85
2019-01-04T23:42:36.347Z,31.62
2019-01-04T23:45:33.798Z,28.70
2019-01-04T23:48:16.834Z,37.85
2019-01-04T23:51:01.948Z,29.80
2019-01-04T23:53:52.524Z,28.70
2019-01-04T23:56:39.185Z,30.02
2019-01-04T23:59:26.184Z,28.75
